Airfield :
LOGIN :

Register | Disclaimer

   EN    FR    IT 

 










Legend :    VFR   Marginal VFR   IFR   Intensive IFR   Very Intensive IFR
Visi :
Ceiling :
>= 8 km
>= 3000ft
5 to 8 km
1000 to 3000 ft
1500m to 5 km
500 to 1000 ft
800 to 1500m
200 to 500 ft
< 800m
< 200 ft
Symbols :   Thunderstorms  Fog  Heavy snow  Heavy precipitations  Wind > 20 kt
SIGMETs :     Misc.  Thunderstorms  Icing  Turbulence  Mountain Waves  Volcanic Ashes






- Airport Elevation : 160 ft
- IATA code : LRT


LFRH - Lorient Lann Bihoue

CURRENT METAR :
  • 260300Z AUTO VRB02KT 9999 BKN031 BKN180 OVC210 M00/M01 Q1020 NOSIG

EXPIRED METARs :
  • 260230Z AUTO 12003KT 9999 BKN029 BKN190 BKN220 M00/M01 Q1020 BECMG 18010KT
  • 260200Z AUTO 08003KT 9999 SCT030 BKN100 00/M01 Q1021 BECMG 18010KT
  • 260130Z AUTO 08003KT 9999 FEW030 OVC100 00/M01 Q1020 BECMG 18010KT
  • 260100Z AUTO 11003KT 8000 NSC M00/M01 Q1020 BECMG 18010KT
  • 260030Z AUTO 09003KT 7000 NSC M00/M01 Q1020 BECMG 18010KT

TAF TAF LFRH
Valid from the 26 at 00:00 until the 27 at 00:00 UTC


252300Z 2600/2624 06005KT CAVOK
BECMG 2602/2604 18010KT
TEMPO 2609/2612 4500 -RA
BECMG 2610/2612 18015G25KT
BECMG 2613/2615 3500 RA BKN008 OVC010
BECMG 2615/2618 15010KT 1500 BR OVC002
BECMG 2619/2621 0500 FG VV///



MET'MAP, your aeronautical weather chart ! - Copyright ORBIFLY December 2007 - Disclaimer

ORBIFLY MET'MAP TEAM :

Programming & Development : Alexandra Zaïnal
Concept & original design : Baudouin d'Aumeries
Assistance for programming : Marc-Olivier Méhu
Technical & hardware support : Manuel Goepfert

Contact : metmap@orbifly.com




SOURCES & CREDITS :

   NOAA